New Orleans, Louisiana
Traffic Map
Current Weather Conditions
New Orleans, Louisiana
Clear
Clear
69°
Feels Like: 69°
Wind Chill: 69° Ceiling: Unl
Heat Index: 69° Visibility: 6mi
Dew Point: 68° Wind: 8mph
Humidity: 96% Direction: 160° (SSE)
Pressure: 30.16in Gusts: 0mph
Raw Report DataKNEW 180253Z 16007KT 6SM CLR 21/20 A3016 RMK AO2 SLP206 T02060200 51005
Traffic Incident Summary
Active as of:
Severity:
Category:
InformationThere was an issue retrieving the traffic information for this location. Please try a different location or try again shortly.
Advertisements
Track Severe Weather on mobile